createdAt,value
2023-03-22T00:01:09.548Z,93.26
2023-03-22T00:03:11.097Z,93.43
2023-03-22T00:05:12.463Z,93.62
2023-03-22T00:09:16.024Z,93.77
2023-03-22T00:11:17.885Z,93.73
2023-03-22T00:13:19.442Z,93.74
2023-03-22T00:15:21.390Z,93.67
2023-03-22T00:17:22.398Z,93.84
2023-03-22T00:19:23.917Z,93.87
2023-03-22T00:21:25.253Z,93.92
2023-03-22T00:23:26.461Z,93.84
2023-03-22T00:25:28.402Z,94.45
2023-03-22T00:27:29.592Z,94.67
2023-03-22T00:29:31.566Z,94.56
2023-03-22T00:31:32.938Z,94.66
2023-03-22T00:33:34.811Z,94.63
2023-03-22T00:35:36.435Z,94.72
2023-03-22T00:37:38.369Z,94.78
2023-03-22T00:39:39.968Z,94.88
2023-03-22T00:41:40.799Z,94.91
2023-03-22T00:43:42.753Z,95.13
2023-03-22T00:45:44.247Z,95.19
2023-03-22T00:47:45.375Z,95.21
2023-03-22T00:49:47.155Z,95.12
2023-03-22T00:51:48.864Z,94.9
2023-03-22T00:53:50.474Z,94.67
2023-03-22T00:55:52.130Z,94.65
2023-03-22T00:57:53.982Z,94.58
2023-03-22T00:59:55.799Z,94.31
2023-03-22T01:01:57.092Z,94.55
2023-03-22T01:03:58.112Z,94.54
2023-03-22T01:05:59.304Z,94.68
2023-03-22T01:08:00.840Z,94.64
2023-03-22T01:10:02.514Z,94.37
2023-03-22T01:12:03.855Z,94.52
2023-03-22T01:14:05.844Z,95.34
2023-03-22T01:16:07.692Z,94.52
2023-03-22T01:18:09.136Z,93.42
2023-03-22T01:20:10.550Z,93.66
2023-03-22T01:24:13.959Z,93.27
2023-03-22T01:26:15.174Z,93.62
2023-03-22T01:28:16.606Z,93.82
2023-03-22T01:30:17.710Z,93.87
2023-03-22T01:32:18.803Z,94.15
2023-03-22T01:34:20.302Z,93.54
2023-03-22T01:36:22.034Z,93.02
2023-03-22T01:38:23.334Z,92.98
2023-03-22T01:40:24.435Z,92.82
2023-03-22T01:42:25.822Z,92.95
2023-03-22T01:44:26.792Z,93.02
2023-03-22T01:46:28.146Z,93.37
2023-03-22T01:48:37.547Z,93.67
2023-03-22T01:50:31.289Z,93.68
2023-03-22T01:52:32.759Z,93.87
2023-03-22T01:54:33.949Z,93.91
2023-03-22T01:56:35.293Z,93.77
2023-03-22T01:58:36.701Z,93.47
2023-03-22T02:00:38.795Z,93.41
2023-03-22T02:02:40.318Z,92.93
2023-03-22T02:04:41.848Z,92.75
2023-03-22T02:06:43.306Z,92.95
2023-03-22T02:08:45.010Z,92.81
2023-03-22T02:10:46.632Z,92.49
2023-03-22T02:12:49.583Z,92.26
2023-03-22T02:14:50.044Z,92.91
2023-03-22T02:16:51.318Z,92.57
2023-03-22T02:18:53.173Z,92.06
2023-03-22T02:22:55.566Z,91.55
2023-03-22T02:24:56.676Z,91.29
2023-03-22T02:26:57.763Z,91.5
2023-03-22T02:28:59.276Z,90.73
2023-03-22T02:33:01.811Z,87.71
2023-03-22T02:35:03.053Z,87.56
2023-03-22T02:37:04.477Z,87.34
2023-03-22T02:39:05.812Z,87.96
2023-03-22T02:41:07.576Z,88.63
2023-03-22T02:43:09.528Z,89.72
2023-03-22T02:45:11.191Z,90.36
2023-03-22T02:47:12.995Z,90.36
2023-03-22T02:49:14.958Z,89.85
2023-03-22T02:51:16.455Z,89.68
2023-03-22T02:53:18.228Z,88.5
2023-03-22T02:55:19.895Z,89.79
2023-03-22T02:57:20.961Z,90.47
2023-03-22T02:59:22.900Z,90.52
2023-03-22T03:01:24.649Z,89.84
2023-03-22T03:04:10.040Z,90.73
2023-03-22T03:06:11.117Z,90.8
2023-03-22T03:10:14.752Z,88.35
2023-03-22T03:12:16.398Z,87.8
2023-03-22T03:14:18.270Z,87.72
2023-03-22T03:16:20.087Z,87.49
2023-03-22T03:18:21.587Z,87.77
2023-03-22T03:20:23.252Z,88.31
2023-03-22T03:22:24.877Z,89.84
2023-03-22T03:24:26.716Z,89.91
2023-03-22T03:26:27.962Z,89.99
2023-03-22T03:28:29.134Z,89.96
2023-03-22T03:30:30.894Z,88.93
2023-03-22T03:32:32.313Z,89.08
2023-03-22T03:34:34.259Z,89.86
2023-03-22T03:36:35.806Z,90.04
2023-03-22T03:38:37.211Z,90.36
2023-03-22T03:40:39.188Z,90.09
2023-03-22T03:42:40.667Z,89.48
2023-03-22T03:44:42.089Z,89.21
2023-03-22T03:46:43.447Z,88.77
2023-03-22T03:48:45.407Z,88.71
2023-03-22T03:52:48.223Z,87.81
2023-03-22T03:54:49.522Z,88.43
2023-03-22T03:56:50.607Z,88.14
2023-03-22T03:58:52.268Z,87.68
2023-03-22T04:00:54.177Z,87.52
2023-03-22T04:02:55.301Z,87.1
2023-03-22T04:04:56.345Z,87.1
2023-03-22T04:06:58.245Z,86.52
2023-03-22T04:08:59.752Z,86.1
2023-03-22T04:11:09.655Z,86.3
2023-03-22T04:13:03.461Z,85.85
2023-03-22T04:15:05.331Z,85.38
2023-03-22T04:17:06.610Z,85.55
2023-03-22T04:19:07.982Z,85.38
2023-03-22T04:21:09.813Z,86.51
2023-03-22T04:23:11.765Z,86.95
2023-03-22T04:25:13.650Z,88.28
2023-03-22T04:27:14.849Z,89.57
2023-03-22T04:29:16.552Z,88.99
2023-03-22T04:31:18.264Z,89.64
2023-03-22T04:35:20.933Z,90.08
2023-03-22T04:37:22.260Z,89.86
2023-03-22T04:39:23.778Z,89.39
2023-03-22T04:41:25.165Z,88.72
2023-03-22T04:43:26.675Z,89.38
2023-03-22T04:45:28.474Z,87.52
2023-03-22T04:47:30.232Z,85.77
2023-03-22T04:49:32.212Z,88.56
2023-03-22T04:51:33.480Z,88.69
2023-03-22T04:55:35.630Z,88.64
2023-03-22T04:57:36.963Z,87.97
2023-03-22T04:59:38.463Z,87.43
2023-03-22T05:01:39.504Z,88.09
2023-03-22T05:03:40.913Z,88.79
2023-03-22T05:07:43.716Z,88.38
2023-03-22T05:09:45.436Z,90.02
2023-03-22T05:11:46.707Z,89.38
2023-03-22T05:13:47.872Z,88.55
2023-03-22T05:15:49.233Z,87.79
2023-03-22T05:17:50.917Z,88.32
2023-03-22T05:19:52.545Z,87.84
2023-03-22T05:21:54.052Z,89.06
2023-03-22T05:23:55.660Z,89.05
2023-03-22T05:25:56.977Z,89.43
2023-03-22T05:27:58.484Z,89.35
2023-03-22T05:30:00.181Z,89.84
2023-03-22T05:32:01.781Z,90.25
2023-03-22T05:34:03.748Z,90.68
2023-03-22T05:36:05.101Z,90.85
2023-03-22T05:38:07.044Z,89.69
2023-03-22T05:40:08.043Z,89.84
2023-03-22T05:42:09.971Z,89.08
2023-03-22T05:44:11.693Z,88.49
2023-03-22T05:46:13.611Z,89.93
2023-03-22T05:50:16.383Z,91.31
2023-03-22T05:52:18.314Z,91.57
2023-03-22T05:54:19.964Z,91.37
2023-03-22T05:56:21.922Z,91.33
2023-03-22T05:58:23.732Z,91.77
2023-03-22T06:00:25.243Z,91.99
2023-03-22T06:02:26.483Z,92.04
2023-03-22T06:04:28.294Z,91.99
2023-03-22T06:06:30.229Z,91.88
2023-03-22T06:08:31.865Z,91.78
2023-03-22T06:10:32.926Z,90.53
2023-03-22T06:12:34.174Z,89.63
2023-03-22T06:14:35.439Z,89.64
2023-03-22T06:16:36.404Z,88.61
2023-03-22T06:18:38.071Z,87.54
2023-03-22T06:20:39.411Z,88.03
2023-03-22T06:22:41.160Z,88.58
2023-03-22T06:24:42.321Z,87.16
2023-03-22T06:26:43.779Z,86.68
2023-03-22T06:28:45.599Z,86.5
2023-03-22T06:32:48.186Z,88.93
2023-03-22T06:34:50.069Z,90.05
2023-03-22T06:36:51.277Z,90.53
2023-03-22T06:38:52.652Z,90.56
2023-03-22T06:40:53.833Z,90.31
2023-03-22T06:42:54.912Z,89.61
2023-03-22T06:44:56.275Z,89.08
2023-03-22T06:46:57.311Z,89.73
2023-03-22T06:48:58.790Z,89.08
2023-03-22T06:51:00.319Z,88.48
2023-03-22T06:53:01.393Z,87.66
2023-03-22T06:55:03.307Z,86.63
2023-03-22T06:57:04.773Z,86.45
2023-03-22T06:59:05.844Z,85.04
2023-03-22T07:01:07.560Z,86.4
2023-03-22T07:05:09.664Z,84.83
2023-03-22T07:07:11.067Z,85.43
2023-03-22T07:09:12.317Z,84.7
2023-03-22T07:11:13.898Z,84.51
2023-03-22T07:15:16.492Z,84.16
2023-03-22T07:17:17.682Z,84.34
2023-03-22T07:19:18.634Z,83.23
2023-03-22T07:21:19.667Z,83.27
2023-03-22T07:23:21.038Z,83.52
2023-03-22T07:25:22.124Z,83.06
2023-03-22T07:27:23.447Z,81.8
2023-03-22T07:29:24.791Z,78.49
2023-03-22T07:31:25.956Z,74.61
2023-03-22T07:33:26.859Z,69.72
2023-03-22T07:35:28.700Z,70.17
2023-03-22T07:37:30.238Z,73.32
2023-03-22T07:39:31.103Z,76.67
2023-03-22T07:41:32.371Z,72.22
2023-03-22T07:43:41.513Z,68.36
2023-03-22T07:45:34.795Z,69.85
2023-03-22T07:47:41.016Z,69.74
2023-03-22T07:49:37.126Z,69.25
2023-03-22T07:51:38.255Z,70.27
2023-03-22T07:53:39.505Z,73.02
2023-03-22T07:55:41.708Z,71.38
2023-03-22T07:57:42.997Z,72.83
2023-03-22T07:59:53.407Z,72.66
2023-03-22T08:01:46.040Z,71.69
2023-03-22T08:03:47.475Z,72.66
2023-03-22T08:05:48.348Z,70.15
2023-03-22T08:07:49.323Z,72.28
2023-03-22T08:09:50.414Z,70.67
2023-03-22T08:13:52.208Z,70.28
2023-03-22T08:15:53.807Z,69.08
2023-03-22T08:17:55.232Z,69.95
2023-03-22T08:19:56.700Z,71.03
2023-03-22T08:21:58.369Z,70.11
2023-03-22T08:23:59.574Z,69.45
2023-03-22T08:26:01.302Z,69.06
2023-03-22T08:28:02.748Z,69.3
2023-03-22T08:30:04.902Z,68.83
2023-03-22T08:32:06.587Z,68.74
2023-03-22T08:34:07.430Z,68.71
2023-03-22T08:36:08.840Z,68.4
2023-03-22T08:38:09.933Z,68.85
2023-03-22T08:40:11.086Z,68.86
2023-03-22T08:42:12.167Z,67.32
2023-03-22T08:46:15.029Z,67.15
2023-03-22T08:48:17.641Z,67.13
2023-03-22T08:50:18.935Z,66.49
2023-03-22T08:52:21.471Z,64.87
2023-03-22T08:56:23.754Z,64.5
2023-03-22T08:58:25.551Z,64.82
2023-03-22T09:00:28.681Z,63.57
2023-03-22T09:02:28.002Z,64.51
2023-03-22T09:04:30.239Z,65.49
2023-03-22T09:06:31.107Z,65.7
2023-03-22T09:08:32.832Z,64.85
2023-03-22T09:10:34.509Z,64.91
2023-03-22T09:12:35.929Z,63.82
2023-03-22T09:14:37.860Z,64.58
2023-03-22T09:16:39.376Z,63.4
2023-03-22T09:18:40.925Z,65.13
2023-03-22T09:20:42.127Z,64.77
2023-03-22T09:22:43.506Z,64.74
2023-03-22T09:24:52.753Z,64.8
2023-03-22T09:26:53.880Z,63.41
2023-03-22T09:28:47.009Z,62.27
2023-03-22T09:30:48.170Z,63.92
2023-03-22T09:32:49.720Z,64.18
2023-03-22T09:35:09.390Z,63.21
2023-03-22T09:38:53.860Z,62.41
2023-03-22T09:40:54.829Z,62.02
2023-03-22T09:44:58.694Z,59.86
2023-03-22T09:46:58.635Z,59.04
2023-03-22T09:49:00.419Z,59.53
2023-03-22T09:50:04.366Z,58.75
2023-03-22T09:51:45.688Z,58.05
2023-03-22T09:53:46.675Z,59.02
2023-03-22T09:55:48.169Z,59.68
2023-03-22T09:57:57.362Z,58.45
2023-03-22T09:59:59.346Z,59.75
2023-03-22T10:01:51.716Z,60.36
2023-03-22T10:03:52.895Z,60.13
2023-03-22T10:05:53.696Z,60.68
2023-03-22T10:07:55.026Z,61.5
2023-03-22T10:09:56.147Z,61.21
2023-03-22T10:11:57.004Z,60.21
2023-03-22T10:16:00.277Z,60.03
2023-03-22T10:18:01.925Z,61.4
2023-03-22T10:20:03.564Z,60.81
2023-03-22T10:22:05.281Z,61.76
2023-03-22T10:24:07.033Z,61.84
2023-03-22T10:26:08.017Z,62.99
2023-03-22T10:28:09.458Z,63.25
2023-03-22T10:32:12.756Z,63.23
2023-03-22T10:34:13.790Z,62.84
2023-03-22T10:36:15.284Z,62.53
2023-03-22T10:38:16.357Z,63.09
2023-03-22T10:40:17.740Z,62.78
2023-03-22T10:42:18.966Z,62.59
2023-03-22T10:44:20.721Z,62.56
2023-03-22T10:46:22.650Z,62.03
2023-03-22T10:48:23.775Z,61.86
2023-03-22T10:50:25.344Z,61.35
2023-03-22T10:52:26.670Z,61
2023-03-22T10:54:27.634Z,61.67
2023-03-22T10:56:28.526Z,60.55
2023-03-22T10:58:29.493Z,60.5
2023-03-22T11:00:31.197Z,60.24
2023-03-22T11:04:34.099Z,59.75
2023-03-22T11:06:35.639Z,59.83
2023-03-22T11:08:37.057Z,59.57
2023-03-22T11:10:38.571Z,59.64
2023-03-22T11:14:41.442Z,59.16
2023-03-22T11:16:42.459Z,56.87
2023-03-22T11:18:43.811Z,55.44
2023-03-22T11:20:44.994Z,56.24
2023-03-22T11:22:46.474Z,56.71
2023-03-22T11:24:47.476Z,56.2
2023-03-22T11:26:49.171Z,57.23
2023-03-22T11:28:50.967Z,57.67
2023-03-22T11:30:53.030Z,56.52
2023-03-22T11:32:54.127Z,56.6
2023-03-22T11:34:55.047Z,58.56
2023-03-22T11:36:56.332Z,57.22
2023-03-22T11:38:58.127Z,56.17
2023-03-22T11:40:59.574Z,57.25
2023-03-22T11:43:00.884Z,56.71
2023-03-22T11:45:02.667Z,55.76
2023-03-22T11:47:03.516Z,56.04
2023-03-22T11:49:04.951Z,55.2
2023-03-22T11:51:06.518Z,56.62
2023-03-22T11:53:08.260Z,55.41
2023-03-22T11:55:09.254Z,56.51
2023-03-22T11:57:10.669Z,55.89
2023-03-22T11:59:11.935Z,55.88
2023-03-22T12:03:14.269Z,56.43
2023-03-22T12:05:15.964Z,55.42
2023-03-22T12:07:17.363Z,55.58
2023-03-22T12:09:18.713Z,55.52
2023-03-22T12:13:21.442Z,55.85
2023-03-22T12:15:23.991Z,55.48
2023-03-22T12:17:25.291Z,55.29
2023-03-22T12:19:26.749Z,56.07
2023-03-22T12:21:27.781Z,55.39
2023-03-22T12:23:29.688Z,54.64
2023-03-22T12:25:31.003Z,54.66
2023-03-22T12:27:32.587Z,53.17
2023-03-22T12:29:33.517Z,52.95
2023-03-22T12:31:35.135Z,52.89
2023-03-22T12:33:35.977Z,53.15
2023-03-22T12:35:37.842Z,52.9
2023-03-22T12:37:39.027Z,53.51
2023-03-22T12:39:40.718Z,53.78
2023-03-22T12:41:42.229Z,53.98
2023-03-22T12:43:43.059Z,53.7
2023-03-22T12:45:44.391Z,52.63
2023-03-22T12:47:46.072Z,52.96
2023-03-22T12:49:47.147Z,52.76
2023-03-22T12:51:48.742Z,52.97
2023-03-22T12:55:51.476Z,52.84
2023-03-22T12:57:53.000Z,53.07
2023-03-22T12:59:54.811Z,53.41
2023-03-22T13:01:56.175Z,54.96
2023-03-22T13:03:57.597Z,52.21
2023-03-22T13:05:59.226Z,52.77
2023-03-22T13:08:00.425Z,52.69
2023-03-22T13:10:01.261Z,53.24
2023-03-22T13:12:02.229Z,53.2
2023-03-22T13:14:03.445Z,52.68
2023-03-22T13:16:04.341Z,52.53
2023-03-22T13:18:06.043Z,52.97
2023-03-22T13:20:07.021Z,53.16
2023-03-22T13:22:08.858Z,52.53
2023-03-22T13:24:09.710Z,52.19
2023-03-22T13:28:12.194Z,51.76
2023-03-22T13:30:13.171Z,51.34
2023-03-22T13:32:14.522Z,52.1
2023-03-22T13:34:15.613Z,51.32
2023-03-22T13:36:16.709Z,51.79
2023-03-22T13:38:18.096Z,51.53
2023-03-22T13:40:19.122Z,52.27
2023-03-22T13:44:22.471Z,50.81
2023-03-22T13:46:23.333Z,50.98
2023-03-22T13:48:25.223Z,51.24
2023-03-22T13:50:26.237Z,50.73
2023-03-22T13:54:28.646Z,49.97
2023-03-22T13:56:29.546Z,49.17
2023-03-22T13:58:30.869Z,48.64
2023-03-22T14:00:31.956Z,50.06
2023-03-22T14:02:32.922Z,49.65
2023-03-22T14:04:34.539Z,50.09
2023-03-22T14:06:35.711Z,50.13
2023-03-22T14:08:37.260Z,47.29
2023-03-22T14:10:39.090Z,45.9
2023-03-22T14:12:39.983Z,45.88
2023-03-22T14:14:41.755Z,46.08
2023-03-22T14:16:42.875Z,46.33
2023-03-22T14:18:43.871Z,46.29
2023-03-22T14:20:45.314Z,46.55
2023-03-22T14:53:07.785Z,47.73
2023-03-22T14:57:10.185Z,46.52
2023-03-22T14:59:11.925Z,46.6
2023-03-22T15:03:14.172Z,45.39
2023-03-22T15:05:15.005Z,45.65
2023-03-22T15:09:17.110Z,46.24
2023-03-22T15:13:19.685Z,45.83
2023-03-22T15:15:21.294Z,44.84
2023-03-22T15:19:24.973Z,44.75
2023-03-22T15:21:25.779Z,44.33
2023-03-22T15:25:28.844Z,45
2023-03-22T15:29:31.389Z,44.44
2023-03-22T15:31:32.895Z,44.19
2023-03-22T15:35:35.633Z,44.17
2023-03-22T15:41:42.010Z,44.11
2023-03-22T15:45:42.211Z,43.42
2023-03-22T15:47:43.341Z,43.44
2023-03-22T15:51:45.780Z,43.42
2023-03-22T15:55:47.676Z,44.6
2023-03-22T15:57:49.290Z,44.7
2023-03-22T16:01:52.553Z,44.05
2023-03-22T16:03:54.301Z,44.65
2023-03-22T16:07:56.233Z,44.69
2023-03-22T16:11:58.876Z,45.23
2023-03-22T16:14:00.371Z,45.01
2023-03-22T16:18:03.224Z,46.28
2023-03-22T16:20:04.828Z,46.22
2023-03-22T16:24:07.434Z,45.99
2023-03-22T16:28:10.334Z,46.32
2023-03-22T16:30:11.897Z,46.99
2023-03-22T16:34:14.649Z,46.58
2023-03-22T16:39:01.603Z,47.72
2023-03-22T16:41:03.166Z,47.69
2023-03-22T16:45:05.184Z,49.28
2023-03-22T16:49:08.129Z,49.76
2023-03-22T16:51:09.046Z,50.35
2023-03-22T16:55:11.353Z,50.76
2023-03-22T16:57:13.156Z,50.91
2023-03-22T17:01:15.964Z,51.34
2023-03-22T17:05:18.659Z,50.96
2023-03-22T17:07:20.420Z,51.95
2023-03-22T17:11:23.108Z,51.53
2023-03-22T17:15:25.470Z,51.61
2023-03-22T17:17:27.308Z,50.97
2023-03-22T17:21:29.577Z,50.34
2023-03-22T17:23:31.192Z,51.2
2023-03-22T17:25:33.166Z,51.24
2023-03-22T17:27:34.574Z,50.96
2023-03-22T17:31:37.873Z,51.3
2023-03-22T17:33:39.216Z,52.08
2023-03-22T17:37:42.369Z,52.36
2023-03-22T17:40:11.802Z,52.73
2023-03-22T17:43:46.760Z,53.01
2023-03-22T17:47:49.993Z,53.95
2023-03-22T17:49:51.087Z,53.73
2023-03-22T17:54:35.984Z,54.24
2023-03-22T17:59:57.253Z,53.1
2023-03-22T18:03:59.404Z,54.16
2023-03-22T18:06:00.476Z,53.91
2023-03-22T18:10:03.759Z,54.72
2023-03-22T18:14:18.163Z,55.36
2023-03-22T18:16:08.393Z,55.71
2023-03-22T18:20:20.948Z,55.98
2023-03-22T18:22:13.610Z,55.96
2023-03-22T18:26:25.614Z,56.25
2023-03-22T18:30:19.692Z,56.27
2023-03-22T18:32:21.280Z,56.19
2023-03-22T18:36:23.580Z,56.78
2023-03-22T18:38:56.463Z,56.71
2023-03-22T18:42:33.502Z,57.01
2023-03-22T18:46:30.595Z,56.62
2023-03-22T18:48:31.761Z,56.83
2023-03-22T18:52:44.406Z,57.25
2023-03-22T18:56:37.134Z,57.38
2023-03-22T18:58:38.054Z,57.6
2023-03-22T19:02:40.904Z,57.15
2023-03-22T19:04:42.108Z,57.62
2023-03-22T19:08:45.259Z,57.25
2023-03-22T19:12:47.563Z,57.09
2023-03-22T19:15:17.876Z,57.13
2023-03-22T19:18:52.378Z,57.61
2023-03-22T19:21:02.661Z,57.41
2023-03-22T19:24:56.400Z,57.5
2023-03-22T19:28:58.809Z,57.94
2023-03-22T19:31:00.480Z,57.08
2023-03-22T19:35:03.317Z,56.82
2023-03-22T19:39:10.875Z,59.32
2023-03-22T19:45:09.278Z,60.54
2023-03-22T19:47:13.731Z,60.52
2023-03-22T19:49:12.266Z,59.76
2023-03-22T19:51:13.415Z,59.63
2023-03-22T19:55:16.618Z,58.38
2023-03-22T19:57:18.251Z,59.03
2023-03-22T19:59:20.087Z,58.97
2023-03-22T20:01:21.101Z,59.46
2023-03-22T20:03:22.282Z,59.85
2023-03-22T20:07:24.843Z,60.39
2023-03-22T20:09:25.974Z,60.64
2023-03-22T20:11:35.031Z,60.83
2023-03-22T20:13:28.794Z,60.29
2023-03-22T20:17:31.001Z,60.7
2023-03-22T20:19:32.649Z,60.61
2023-03-22T20:23:36.064Z,60.9
2023-03-22T20:27:38.251Z,61.21
2023-03-22T20:29:39.314Z,60.3
2023-03-22T20:33:42.040Z,60.35
2023-03-22T20:37:44.800Z,60.51
2023-03-22T20:39:46.687Z,60.78
2023-03-22T20:43:49.805Z,60.32
2023-03-22T20:45:51.048Z,61.49
2023-03-22T20:49:54.196Z,60.92
2023-03-22T20:53:56.935Z,60.22
2023-03-22T20:55:58.321Z,60.72
2023-03-22T21:00:01.423Z,60.94
2023-03-22T21:02:03.114Z,61.28
2023-03-22T21:06:06.039Z,60.63
2023-03-22T21:10:08.070Z,61.11
2023-03-22T21:12:09.355Z,61.02
2023-03-22T21:16:12.771Z,61.54
2023-03-22T21:20:23.668Z,62.01
2023-03-22T21:22:16.812Z,61.28
2023-03-22T21:26:19.492Z,62.95
2023-03-22T21:28:20.486Z,63.23
2023-03-22T21:32:23.515Z,62.54
2023-03-22T21:36:26.547Z,62.41
2023-03-22T21:38:27.822Z,62.04
2023-03-22T21:42:30.652Z,64.14
2023-03-22T21:44:31.623Z,63.41
2023-03-22T21:48:34.469Z,65.21
2023-03-22T21:52:37.703Z,66.06
2023-03-22T21:54:39.452Z,65.44
2023-03-22T21:58:41.416Z,63.64
2023-03-22T22:02:44.056Z,63.32
2023-03-22T22:04:45.174Z,62.9
2023-03-22T22:08:48.409Z,64.61
2023-03-22T22:10:49.855Z,65.02
2023-03-22T22:12:51.393Z,66.14
2023-03-22T22:14:53.269Z,66.06
2023-03-22T22:18:56.059Z,65.14
2023-03-22T22:20:57.198Z,64.08
2023-03-22T22:25:00.353Z,65.35
2023-03-22T22:27:01.682Z,65.82
2023-03-22T22:31:04.507Z,65.96
2023-03-22T22:35:07.627Z,65.47
2023-03-22T22:37:09.367Z,64.71
2023-03-22T22:41:12.958Z,64.77
2023-03-22T22:43:14.541Z,64.99
2023-03-22T22:47:17.504Z,64.89
2023-03-22T22:51:20.284Z,64.86
2023-03-22T22:53:21.182Z,65.02
2023-03-22T22:57:23.900Z,65.12
2023-03-22T22:59:25.187Z,65.83
2023-03-22T23:03:28.432Z,65.21
2023-03-22T23:07:30.406Z,65.15
2023-03-22T23:09:31.925Z,64.24
2023-03-22T23:13:35.345Z,63.73
2023-03-22T23:17:38.356Z,62.36
2023-03-22T23:19:39.894Z,63.04
2023-03-22T23:22:25.446Z,63.42
2023-03-22T23:24:26.972Z,63.49
2023-03-22T23:28:29.672Z,62.58
2023-03-22T23:30:30.855Z,61.54
2023-03-22T23:34:33.451Z,61.44
2023-03-22T23:36:35.070Z,61.63
2023-03-22T23:40:38.170Z,61.38
2023-03-22T23:44:41.224Z,61.45
2023-03-22T23:46:42.424Z,61.16
2023-03-22T23:50:45.795Z,61.53
2023-03-22T23:52:47.425Z,61.63
2023-03-22T23:56:50.226Z,61.1
